Ryeland, Pennsylvania
Current Conditions -  °F | °C
As of 12:17 AM on Thursday 23 Oct 2014 (Local Time) from KRDG Reporting Station
Overcast Overcast  
Wind Chill: 53°   Ceiling: 3000
Heat Index: 53°   Visibility: 10mi
Dew Point: 44°   Wind: 17mph
Humidity: 71%   Direction: 330°NNW
Pressure: 29.85"   Gusts: 26mph
Location:  40.3905°N, 76.2083°W
Report Text: KRDG 230417Z 33015G23KT 10SM OVC030 12/07 A2985 RMK AO2 T01170067
Loading
Personal Weather Stations






























Interactive Weather Map New forecast layout! Learn more

10-Day Weather Forecast

Advertisements
Track Severe Weather on mobile